Ricardo Muñoz

Recruteur en chef - Atlético Tucumán
13 Févr 2028
Dimanche
Processus

Personnalité

Adaptabilité (20) Ambition (11) Controverse (18) Loyauté (17) Pression (12) Professionnalisme (15) Sportivité (7) Tempérament (14)

Profil

Style d'entraînement Démocratique
Diplôme Continental C
Détermination 9
Gestion des joueurs 12
Motivation 8
Discipline 8
Satisfaction professionnelle
100%
Fatigue
0%
Rôle Recruteur en chef
Salaire 72.1K p/s
Contrat 14.03.2030

Performance

Comportement Bon
Efficacité de l'entraînement
49%
Développement des joueurs
30%
Prévention des blessures
45%
Mise en place tactique
35%

Événements récents

A participé à une réunion de recrutement maintenant
A participé à une réunion de recrutement maintenant
A participé à une réunion de recrutement 7j
A participé à une réunion de recrutement 7j
A participé à une réunion de recrutement 7j
A participé à une réunion de recrutement 7j
A participé à une réunion de recrutement 14j
A participé à une réunion de recrutement 14j

Suivi en cours

267
Joueur Club Statut Capacité Confiance Observé Dernière observation Dernier vote
Joel Ezra Enyimba Actif 91 / 96 40% 2 30.11.2027 -
Hosea Michael Remo Stars Actif 93 / 100 40% 3 30.11.2027 -
Ignacio Fernández Boston River Actif 96 / 105 40% 4 29.11.2027 -
Archie Gray Southampton Actif 158 / 162 40% 4 29.11.2027 Observer
Victor Hernandez Santa Fe Actif 119 / 126 40% 3 28.11.2027 -
Jorge Moreno Athletic Bilbao Actif 127 / 137 40% 4 28.11.2027 -
Josh King Newcastle United Actif 147 / 143 40% 2 28.11.2027 -
Trey Nyoni Rotherham United Actif 141 / 151 40% 1 27.11.2027 -
Marco Morigi Caracas Actif 94 / 100 40% 4 25.11.2027 -
Óscar Hinojosa Metropolitanos Actif 81 / 84 40% 3 25.11.2027 -
Sebastián Ramírez Aguilas Doradas Actif 104 / 117 40% 3 23.11.2027 -
Vitor Reis Manchester City Actif 133 / 138 40% 3 23.11.2027 -
Tyler Fletcher Rotherham United Actif 111 / 115 40% 1 23.11.2027 -
Facundo Balatti Penarol Actif 101 / 113 40% 2 20.11.2027 -
Adam Aznou Everton Actif 132 / 126 40% 4 20.11.2027 -
Oscar Steinke Brånby Hammarby Actif 96 / 103 40% 1 20.11.2027 -
Julián Bazán New York Red Bulls Actif 118 / 117 40% 2 18.11.2027 -
Colin Guske Orlando City Actif 96 / 103 40% 2 18.11.2027 -
Lucas Camejo River Plate Actif 88 / 86 40% 3 17.11.2027 -
Jon Esenga IF Elfsborg Actif 95 / 100 40% 1 17.11.2027 -
Diego Vargas Universidad de Concepcion Actif 98 / 98 40% 1 16.11.2027 -
Ángel Aguayo Sol de America Actif 97 / 94 40% 2 14.11.2027 -
Ayden Heaven Portsmouth Actif 147 / 154 40% 1 13.11.2027 -
Christos Mouzakitis Hull City Actif 136 / 150 40% 1 13.11.2027 -
Yury Oyarzo Racing Actif 96 / 97 40% 3 09.11.2027 -
Isaías Silva Miramar Misiones Actif 75 / 82 40% 3 09.11.2027 -
Gideon Manaseh Ikorodu City Actif 92 / 106 40% 2 08.11.2027 -
Rasmus Nehrman Gefle Actif 79 / 95 40% 1 05.11.2027 -
Alan Valdelamar Independiente Medellin Actif 95 / 98 40% 1 05.11.2027 -
Francisco Machis Llaneros Actif 80 / 93 40% 3 03.11.2027 -
Mirza Ćatović VfB Stuttgart Actif 114 / 129 40% 1 03.11.2027 -
Adrian Skogmar Malmo FF Actif 112 / 127 40% 2 02.11.2027 -
Ivan Giraldo Valencia Actif 132 / 133 40% 1 02.11.2027 -
Lucas Nicol Mjondalen Actif 81 / 81 40% 1 31.10.2027 -
Juan Camilo Córdoba Deportivo Pereira Actif 85 / 89 40% 2 30.10.2027 -
Juan Diego Perdomo Depor Actif 93 / 91 40% 2 27.10.2027 -
Pedro Soma San Diego Football Club Actif 105 / 111 40% 3 27.10.2027 -
Agustín De la Cuesta Racing Actif 111 / 116 40% 1 27.10.2027 -
Vinícius Lira São Paulo Actif 113 / 127 40% 1 24.10.2027 -
Honest Ahanor Atalanta Actif 135 / 139 40% 1 23.10.2027 -
Josh Acheampong Everton Actif 149 / 149 40% 1 23.10.2027 -
Tiago Gordillo San Miguel Actif 81 / 94 40% 3 22.10.2027 -
Jonny Shore New York City Actif 101 / 109 40% 1 22.10.2027 -
Matías Canedo Rampla Juniors Actif 85 / 92 40% 1 21.10.2027 -
Nikolay Sotnikov Arsenal Dzerzhinsk Actif 83 / 89 40% 1 18.10.2027 -
Ivan Borges Defensores Actif 90 / 93 40% 1 16.10.2027 -
Aytor Herrera Mineros de Guayana Actif 87 / 84 40% 1 15.10.2027 -
Sebastián Caballero Barranquilla Actif 97 / 92 40% 1 14.10.2027 -
Matias Siltanen Malmo FF Actif 125 / 136 40% 1 10.10.2027 -
Darwin Pérez Metropolitanos Actif 78 / 85 40% 1 10.10.2027 -
Mohamed Bolivar Barranquilla Actif 93 / 97 40% 1 04.10.2027 -
Mateus Mané Burnley Actif 132 / 136 40% 6 31.05.2027 -
Assane Diao Como Actif 146 / 156 40% 18 30.05.2027 -
Chimobi Igwilo Rangers International Actif 91 / 88 40% 1 30.05.2027 -
Borna Knezović Casarano Actif 103 / 101 40% 4 27.05.2027 -
Carlos da Rosa Cerro Actif 96 / 101 40% 1 27.05.2027 -
Miloš Jovičić Zabbar St. Patrick Actif 84 / 100 40% 8 25.05.2027 -
Alen Vukaj Alcione Milano Actif 80 / 99 40% 1 25.05.2027 -
Luka Andrade Montevideo City Torque Actif 101 / 103 40% 6 24.05.2027 -
Teboho Zwane Ajax Cape Town Actif 100 / 98 40% 6 24.05.2027 -
Miguel Marulanda Envigado Actif 87 / 99 40% 1 23.05.2027 -
Hassan Beja AFC Leopards Actif 91 / 88 40% 2 22.05.2027 -
Sergey Gaiduk Salyut Actif 78 / 74 40% 3 21.05.2027 -
Ousseynou Seck Randers Actif 109 / 118 40% 5 19.05.2027 -
Sidiki Chérif Newcastle United Actif 120 / 132 40% 3 19.05.2027 -
Sindre Walle Egeli Udinese Actif 127 / 140 40% 8 18.05.2027 -
Giuseppe Coppola Picerno Actif 105 / 95 40% 2 16.05.2027 -
Lwanda Mbanjwa Platinum Stars Actif 84 / 102 40% 5 13.05.2027 -
Rafael Moreno Atletico Venezuela Actif 109 / 110 40% 5 10.05.2027 -
Nahuel Olmedo Crawley Town Actif 84 / 84 40% 3 10.05.2027 -
Dilan Neves Benfica Actif 75 / 79 40% 2 07.05.2027 -
Joel Orlando Almagro Actif 112 / 115 40% 3 06.05.2027 -
Chineme Chinonso Ikorodu City Actif 103 / 94 40% 2 04.05.2027 -
Maren Kefas Plateau United Actif 97 / 96 40% 1 28.04.2027 -
Stanley Amon Bayelsa United Actif 98 / 91 40% 2 23.04.2027 -
Abubakar Garba Nasarawa United Actif 86 / 100 40% 1 23.04.2027 -
Naledi Hlongwane Wa All Stars Actif 86 / 102 40% 2 22.04.2027 -
Mathys Tel Tottenham Actif 135 / 154 40% 3 21.04.2027 -
Etsgar Cruz Ruch Actif 82 / 94 40% 1 21.04.2027 -
Roberto Iliev Slavia Sofia Actif 100 / 100 40% 5 18.04.2027 -
Víctor Guzmán Sporting CP Actif 103 / 96 40% 5 13.04.2027 -
Darlvin Yeboah Bechem United Actif 85 / 94 40% 3 12.04.2027 -
Ben Ahmed Kohili Paradou Actif 99 / 108 40% 6 12.04.2027 -
Luke Baartman Ajax Cape Town Actif 102 / 112 40% 6 10.04.2027 -
Kirill Cheburakov Rostov Actif 70 / 75 40% 1 29.03.2027 -
Leo Castledine Middlesbrough Actif 133 / 139 40% 4 25.03.2027 -
Ryan Oné Sheffield United Actif 104 / 114 40% 4 23.03.2027 -
Lorenzo De Leo Renate Actif 105 / 99 40% 1 22.03.2027 -
Rocco Vata Watford Actif 125 / 121 40% 2 21.03.2027 -
Tiago Pucciarelli IF Elfsborg Actif 97 / 99 40% 2 18.03.2027 -
Luciano Inverso Betis Actif 112 / 120 40% 2 15.03.2027 -
Dani Ángel Sampdoria Actif 95 / 101 40% 2 15.03.2027 -
Charlie Lennon Barnsley Actif 88 / 94 40% 3 13.03.2027 -
Juan Francisco Rossel Puebla Actif 97 / 94 40% 3 05.03.2027 -
Joseph George Aigle Royal de Moungo Actif 95 / 84 40% 2 01.03.2027 -
Serge Daura PWD Bamenda Actif 92 / 95 40% 1 17.02.2027 -
George Brown Sheffield Wednesday Actif 103 / 103 40% 2 16.02.2027 -
Máximo Seggio Crawley Town Actif 76 / 94 40% 1 12.02.2027 -
Mattia Angeloni AlbinoLeffe Actif 82 / 82 40% 1 11.02.2027 -
Fletcher Holman Swindon Town Actif 88 / 90 40% 1 11.02.2027 -
Jonás Luna Wanderers Actif 115 / 121 40% 3 10.02.2027 -
Xavier Biscayzacú Defensor Sporting Actif 128 / 132 40% 2 10.02.2027 -
Will Lankshear Middlesbrough Actif 120 / 125 40% 1 03.02.2027 -
Max Bird Birmingham Actif 124 / 131 40% 1 29.11.2026 -
Jordan Lotomba Bloemfontein Celtic Actif 120 / 114 40% 1 29.11.2026 -
Toby Collyer West Bromwich Albion Actif 132 / 130 40% 1 28.11.2026 -
Oliver Skipp Leicester City Actif 120 / 138 40% 3 27.11.2026 -
Thalente Mbatha Orlando Pirates Actif 123 / 119 40% 3 27.11.2026 -
Vladan Kovačević Norwich City Actif 110 / 110 40% 1 27.11.2026 -
Fran Vieites Walsall Actif 129 / 120 40% 1 27.11.2026 -
Ethan Galbraith Swansea City Actif 131 / 124 40% 2 25.11.2026 -
Josh Neufville Bradford City Actif 100 / 116 40% 1 25.11.2026 -
Filip Marschall Stevenage Actif 99 / 118 40% 1 25.11.2026 -
Matías Tagliamonte Racing Club Actif 116 / 119 40% 1 25.11.2026 -
Lucas Lund Viborg Actif 106 / 122 40% 1 25.11.2026 -
Arijanet Murić Sassuolo Actif 143 / 138 40% 1 24.11.2026 -
Rodrigo Morínigo Debrecen Actif 116 / 128 40% 1 24.11.2026 -
Jens Petter Hauge Bodo/Glimt Actif 136 / 143 40% 1 24.11.2026 Plus d'infos
Sota Kitano Red Bull Salzburg Actif 124 / 119 40% 1 24.11.2026 -
Paik Seung-Ho Birmingham Actif 131 / 134 40% 2 23.11.2026 -
Aidan Morris Middlesbrough Actif 137 / 131 40% 2 23.11.2026 -
Tariq Lamptey Queens Park Rangers Actif 144 / 128 40% 1 23.11.2026 -
Callum Brittain Middlesbrough Actif 130 / 125 40% 1 20.11.2026 -
Ronnie Edwards Queens Park Rangers Actif 123 / 125 40% 1 20.11.2026 -
Gastón Benedetti Estudiantes Actif 130 / 128 40% 2 19.11.2026 -
Rustam Yatimov Rostov Actif 113 / 113 40% 1 19.11.2026 -
Michael Baidoo Plymouth Argyle Actif 123 / 126 40% 1 19.11.2026 -
Toti Wolverhampton Actif 122 / 131 40% 2 18.11.2026 -
Justin Devenny Stoke City Actif 122 / 121 40% 1 18.11.2026 -
Enrique Almeida Cerro Largo Actif 100 / 99 40% 1 18.11.2026 -
Thomas Carrique Andorra Actif 127 / 108 40% 4 15.11.2026 -
Welington Southampton Actif 134 / 121 40% 1 15.11.2026 -
Mateo Ortale Khazar Actif 115 / 114 40% 1 15.11.2026 -
Tobías Bovone Deportivo Pereira Actif 108 / 108 40% 1 14.11.2026 -
Alfie Doughty Millwall Actif 126 / 119 40% 1 14.11.2026 -
Nicolás Sumavil Platense Actif 115 / 121 40% 1 14.11.2026 -
Gustavo Hamer Sheffield United Actif 124 / 124 40% 2 12.11.2026 -
Evander Wolverhampton Actif 134 / 139 40% 1 12.11.2026 -
Egoitz Arana Real Sociedad Actif 101 / 103 40% 4 11.11.2026 -
Radek Vítek Middlesbrough Actif 143 / 131 40% 2 11.11.2026 -
Max Lowe Sheffield Wednesday Actif 126 / 120 40% 1 11.11.2026 -
Will Mannion Charlton Athletic Actif 113 / 116 40% 1 11.11.2026 -
Alan Lescano Argentinos Juniors Actif 130 / 126 40% 1 11.11.2026 -
Matías Vargas Gimnasia y Esgrima Actif 134 / 130 40% 1 11.11.2026 -
Ben Sheaf Wrexham Actif 132 / 128 40% 3 08.11.2026 -
Santiago Longo Belgrano Actif 120 / 127 40% 1 08.11.2026 -
Lebogang Manyama SuperSport United Actif 123 / 120 40% 1 08.11.2026 -
Killian Cahill Leyton Orient Actif 102 / 98 40% 1 08.11.2026 -
Richard Ludha MFK Skalica Actif 111 / 115 40% 1 08.11.2026 -
Darlin Yongwa Norwich City Actif 118 / 113 40% 1 05.11.2026 -
Oscar Hedvall Valerenga Actif 121 / 116 40% 1 05.11.2026 -
Habib Diarra Sunderland Actif 147 / 135 40% 1 03.11.2026 -
Nicolás Garayalde Liverpool Montevideo Actif 113 / 119 40% 1 02.11.2026 -
Manu Morlanes Mallorca Actif 127 / 138 40% 6 01.11.2026 -
Brian De Keersmaecker Oxford United Actif 114 / 126 40% 1 01.11.2026 -
Kristoffer Lund Birmingham Actif 134 / 124 40% 1 31.10.2026 -
Ethan Ampadu Leeds United Actif 133 / 151 40% 1 29.10.2026 -
Teboho Mokoena Mamelodi Sundowns Actif 142 / 122 40% 1 29.10.2026 Plus d'infos
Edoardo Bove Watford Actif 135 / 138 40% 1 28.10.2026 -
Josh Tymon Swansea City Actif 131 / 113 40% 1 28.10.2026 -
Leandro Lozano Boca Juniors Actif 129 / 119 40% 1 26.10.2026 -
Dayne St. Clair Inter Miami CF Actif 130 / 127 40% 1 25.10.2026 -
Nathan Trott Cardiff City Actif 132 / 130 40% 1 25.10.2026 -
James Trafford Leeds United Actif 132 / 143 40% 1 25.10.2026 -
Lucas Arce Charleroi Actif 118 / 131 40% 1 24.10.2026 -
Óscar Díaz Miramar Misiones Actif 110 / 106 40% 1 24.10.2026 -
Juan Cruz de los Santos Nacional Actif 120 / 120 40% 1 23.10.2026 -
Emanuel Coronel Rosario Central Actif 121 / 124 40% 1 21.10.2026 -
Imanol González Gimnasia y Esgrima Actif 108 / 121 40% 1 20.10.2026 -
Damián Fernández Defensa y Justicia Actif 119 / 130 40% 1 20.10.2026 -
Ignacio Rodríguez Racing Club Actif 122 / 125 40% 1 20.10.2026 -
Diego Romero Universitario Actif 115 / 127 40% 2 19.10.2026 -
Bongani Zungu Ajax Cape Town Actif 129 / 121 40% 1 18.10.2026 -
Pedrinho Shakhtar Actif 148 / 138 40% 1 18.10.2026 -
Juan Bisanz Huracán Actif 121 / 126 40% 1 18.10.2026 -
Ander Guevara Racing Genk Actif 145 / 127 40% 3 17.10.2026 -
Tobías Reinhart Universidad de Chile Actif 123 / 121 40% 2 17.10.2026 -
Ilyas Ansah Hull City Actif 127 / 132 40% 1 16.10.2026 -
Facundo Vila Estudiantes Actif 104 / 106 40% 2 14.10.2026 -
Viktor Johansson Stoke City Actif 142 / 129 40% 1 14.10.2026 -
Bruno Antúnez Boston River Actif 110 / 110 40% 3 13.10.2026 -
Sergi Cardona KAA Gent Actif 140 / 151 40% 3 12.10.2026 -
Esteban Valencia Cobresal Actif 109 / 104 40% 3 12.10.2026 -
Ignacio Vázquez Platense Actif 125 / 130 40% 1 09.10.2026 -
Nazareno Colombo Racing Club Actif 123 / 123 40% 1 09.10.2026 -
José Castillo Guadalajara Actif 114 / 121 40% 2 08.10.2026 -
Jesús Orozco Chiquete Cruz Azul Actif 136 / 125 40% 2 08.10.2026 -
Franco Pardo Santos Laguna Actif 126 / 127 40% 2 08.10.2026 -
Erik Lira Cruz Azul Actif 132 / 139 40% 2 07.10.2026 -
Fidel Ambríz Monterrey Actif 129 / 126 40% 4 07.10.2026 -
Luís Esteves Atlas Actif 134 / 127 40% 4 07.10.2026 -
Martín Ojeda Orlando City Actif 129 / 137 40% 1 07.10.2026 -
Jesús Angulo Tigres Actif 137 / 137 40% 4 06.10.2026 -
Willer Ditta Cruz Azul Actif 138 / 132 40% 3 06.10.2026 -
José Alberti Wanderers Actif 127 / 123 40% 1 06.10.2026 -
Matías Contrera Hrvatski Dragovoljac Actif 107 / 98 40% 1 06.10.2026 -
John Pulskamp Sporting Kansas City Actif 109 / 113 40% 2 02.10.2026 -
Lucas Bergström Union Berlin Actif 129 / 131 40% 1 02.10.2026 -
Diego Enríquez Sporting Cristal Actif 123 / 133 40% 3 30.09.2026 -
Ricardo Echeverría Santos Laguna Actif 118 / 114 40% 1 30.09.2026 -
Gerardo Arteaga Monterrey Actif 123 / 134 40% 1 30.09.2026 -
Rômulo Tigres Actif 120 / 123 40% 1 30.09.2026 -
Omar Carabalí O'Higgins Actif 115 / 106 40% 1 30.09.2026 -
Efrain Dos Santos Veracruz Actif 127 / 126 40% 1 29.09.2026 -
Facundo Miño Deportivo Riestra Actif 125 / 115 40% 1 26.09.2026 -
Miguel Brizuela O'Higgins Actif 116 / 118 40% 1 26.09.2026 -
Álvaro Angulo Pumas UNAM Actif 123 / 120 40% 2 25.09.2026 -
Nathan Silva Pumas UNAM Actif 124 / 130 40% 2 23.09.2026 -
Víctor Felipe Méndez Colo-Colo Actif 119 / 119 40% 1 23.09.2026 -
Tomás Alarcón Colo-Colo Actif 116 / 113 40% 1 22.09.2026 -
Yeferson Cordova Llaneros Actif 91 / 95 40% 1 22.09.2026 -
Tomás Ahumada Audax Italiano Actif 102 / 105 40% 1 21.09.2026 -
Aldo Pérez Guarani Actif 106 / 112 40% 1 21.09.2026 -
Ramón Juárez Club America Actif 133 / 131 40% 4 18.09.2026 -
Héctor Holguín Morelia Actif 111 / 104 40% 1 18.09.2026 -
Kevin Álvarez Club America Actif 138 / 127 40% 3 16.09.2026 -
Rodrigo Chagas Juventud Actif 115 / 121 40% 2 16.09.2026 -
Eber Moreno Deportivo Pereira Actif 116 / 107 40% 1 15.09.2026 -
Jorge Sánchez Atlas Actif 124 / 129 40% 1 14.09.2026 -
Aldo López Santos Laguna Actif 113 / 117 40% 2 13.09.2026 -
Jean Carlos Pestaña Junior Actif 125 / 116 40% 1 13.09.2026 -
Jhomier Guerrero Millonarios Actif 118 / 116 40% 2 12.09.2026 -
Pedro Pedraza Pachuca Actif 126 / 115 40% 1 12.09.2026 -
Aarón Mejía Tijuana Actif 114 / 118 40% 2 11.09.2026 -
Miguel Núñez Chiapas Actif 94 / 100 40% 1 11.09.2026 -
Adonis Frías Atlas Actif 123 / 128 40% 1 09.09.2026 -
Aldair Zárate Atletico Bucaramanga Actif 110 / 118 40% 1 07.09.2026 -
Camilo Martinez Cortulua Actif 125 / 124 40% 1 07.09.2026 -
Williams Mabunda Ajax Cape Town Actif 122 / 122 40% 1 07.09.2026 -
Nicolás Campisi Sportivo Luqueno Actif 125 / 124 40% 1 06.09.2026 -
Cristopher Varela Deportivo La Guaira Actif 117 / 115 40% 1 06.09.2026 -
Erick Aguirre Monterrey Actif 118 / 130 40% 3 04.09.2026 -
Diego Romero Liverpool Montevideo Actif 117 / 111 40% 1 04.09.2026 -
Nicolás Hernández Atletico Nacional Actif 117 / 121 40% 1 04.09.2026 -
Diego Hernández Aguilas Doradas Actif 120 / 122 40% 3 03.09.2026 -
Nicolás Ramírez Universidad de Chile Actif 117 / 116 40% 1 03.09.2026 -
Erik de los Santos Racing Actif 108 / 115 40% 2 02.09.2026 -
Alan Cervantes Club America Actif 129 / 130 40% 1 02.09.2026 -
César Araújo Tigres Actif 120 / 127 40% 3 01.09.2026 -
Jean Pierre Rosso Liverpool Montevideo Actif 110 / 119 40% 2 28.08.2026 -
Emiliano Álvarez Progreso Actif 116 / 124 40% 2 26.08.2026 -
Yeferson Rodallega Envigado Actif 106 / 115 40% 1 25.08.2026 -
Éwil Murillo Santa Fe Actif 119 / 111 40% 1 25.08.2026 -
Richard Ledezma Guadalajara Actif 131 / 133 40% 2 24.08.2026 -
Juan Manuel Zapata Envigado Actif 113 / 121 40% 2 24.08.2026 -
Juan Camilo Pérez Carabobo Actif 113 / 118 40% 1 22.08.2026 -
Jan Carlos Ángulo Deportes Tolima Actif 116 / 118 40% 1 21.08.2026 -
Pablo Cardona Cortulua Actif 112 / 108 40% 1 20.08.2026 -
Jesús Garza Tigres Actif 129 / 123 40% 1 20.08.2026 -
Milton Valenzuela Atlas Actif 114 / 112 40% 1 19.08.2026 -
Nicolás Rossi Juventud Actif 107 / 106 40% 2 18.08.2026 -
Emiliano González Almagro Actif 120 / 114 40% 1 18.08.2026 -
Frankarlos Benítez Caracas Actif 95 / 100 40% 1 17.08.2026 -
Reynaldo Fontalvo Real Cartagena Actif 100 / 97 40% 1 17.08.2026 -
Giacomo Gambetta Sport Huancayo Actif 94 / 95 40% 1 17.08.2026 -
Ángel Maciel Tacuarembo Actif 98 / 106 40% 1 15.08.2026 -
Ángel González Libertad Actif 101 / 105 40% 1 15.08.2026 -
Joaquim Tigres Actif 124 / 124 40% 2 14.08.2026 -
Esneyder Mena Deportivo Pasto Actif 119 / 110 40% 1 10.08.2026 -
Gonzalo Falcón Cienciano Actif 113 / 105 40% 1 09.08.2026 -
Carlos Gómez Ayacucho Actif 102 / 96 40% 1 08.08.2026 -
Pedro Vite Pumas UNAM Actif 123 / 119 40% 1 07.08.2026 -
Alejandro Zendejas Club America Actif 135 / 133 40% 1 07.08.2026 -
Fabricio Domínguez Cerro Porteno Actif 118 / 126 40% 1 07.08.2026 -
Diego Campillo Guadalajara Actif 119 / 122 40% 2 04.08.2026 -
Pablo Tomeo Valladolid Actif 131 / 131 40% 1 02.08.2026 -
Joe Gomez Liverpool Actif 157 / 155 40% 1 01.08.2026 -